Time;durP1;ratioP1;P1;durP2;ratioP2;P2;SDS_P1;SDS_P2;PMS_P1;PMS_P2;Temp;Humidity;BMP_temperature;BMP_pressure;BME280_temperature;BME280_humidity;BME280_pressure;Samples;Min_cycle;Max_cycle;Signal;HPM_P1;HPM_P2
2023/06/02 00:01:23;;;;;;;10.57;4.90;;;;;;;-141.84;68.17;20155.28;5071192;28;20229;-56
2023/06/02 00:03:54;;;;;;;6.10;4.77;;;;;;;-141.84;67.94;20159.34;5072902;28;20592;-56
2023/06/02 00:06:26;;;;;;;8.93;4.97;;;;;;;-141.84;68.29;20169.53;5072439;28;20185;-57
2023/06/02 00:08:57;;;;;;;12.13;5.20;;;;;;;-141.84;67.85;20141.06;5072318;28;20189;-57
2023/06/02 00:11:26;;;;;;;9.57;5.10;;;;;;;-141.84;67.44;20189.84;5072334;28;20296;-57
2023/06/02 00:13:55;;;;;;;9.43;4.93;;;;;;;-141.84;68.05;20157.31;5072721;28;20247;-55
2023/06/02 00:16:23;;;;;;;14.00;5.17;;;;;;;-141.84;67.96;20137.00;5071903;28;20958;-59
2023/06/02 00:18:56;;;;;;;8.67;5.30;;;;;;;-141.84;67.98;20141.06;5072531;28;20201;-58
2023/06/02 00:21:26;;;;;;;8.93;4.60;;;;;;;-141.84;68.66;20151.22;5071901;28;20196;-57
2023/06/02 00:23:55;;;;;;;5.57;4.63;;;;;;;-141.84;68.51;20132.94;5071862;28;20203;-58
2023/06/02 00:26:25;;;;;;;7.53;4.87;;;;;;;-141.84;67.77;20145.13;5054592;28;20236;-56
2023/06/02 00:28:55;;;;;;;7.17;4.73;;;;;;;-141.84;68.50;20120.75;5052244;28;20259;-57
2023/06/02 00:31:24;;;;;;;11.80;5.17;;;;;;;-141.84;68.24;20137.00;5065508;28;20259;-58
2023/06/02 00:33:54;;;;;;;6.70;4.77;;;;;;;-141.84;69.21;20126.84;5071960;28;20236;-57
2023/06/02 00:36:23;;;;;;;7.23;4.70;;;;;;;-141.84;69.48;20124.81;5072345;28;20655;-55
2023/06/02 00:38:51;;;;;;;8.57;4.63;;;;;;;-141.84;69.43;20110.56;5071841;28;20672;-57
2023/06/02 00:41:20;;;;;;;6.00;4.23;;;;;;;-141.84;69.23;20090.25;5065365;28;20631;-56
2023/06/02 00:43:48;;;;;;;7.20;4.53;;;;;;;-141.84;68.57;20114.63;5071668;28;20637;-56
2023/06/02 00:46:17;;;;;;;8.30;4.63;;;;;;;-141.84;69.32;20080.09;5071619;28;20305;-57
2023/06/02 00:48:47;;;;;;;8.07;4.40;;;;;;;-141.84;69.15;20112.59;5071719;28;20239;-57
2023/06/02 00:51:18;;;;;;;6.97;4.90;;;;;;;-141.84;69.31;20092.28;5071837;28;20292;-57
2023/06/02 00:53:47;;;;;;;8.20;4.67;;;;;;;-141.84;69.78;20061.78;5071400;28;20231;-57
2023/06/02 00:56:17;;;;;;;5.73;4.17;;;;;;;-141.84;70.29;20086.19;5071179;28;20639;-57
2023/06/02 00:58:46;;;;;;;9.03;5.07;;;;;;;-141.84;69.67;20084.16;5071328;28;20263;-58
2023/06/02 01:01:18;;;;;;;8.40;4.83;;;;;;;-141.84;68.93;20092.28;5070982;28;20237;-57
2023/06/02 01:03:50;;;;;;;6.90;5.00;;;;;;;-141.84;69.64;20071.97;5071317;28;20189;-57
2023/06/02 01:06:31;;;;;;;6.10;4.77;;;;;;;-141.84;70.59;20033.34;5071345;28;20189;-55
2023/06/02 01:09:02;;;;;;;8.47;4.73;;;;;;;-141.84;69.39;20069.94;5070768;28;20192;-56
2023/06/02 01:11:31;;;;;;;8.70;4.40;;;;;;;-141.84;68.85;20100.41;5076851;28;20304;-56
2023/06/02 01:14:00;;;;;;;6.87;4.60;;;;;;;-141.84;68.94;20082.13;5091555;28;20273;-57
2023/06/02 01:16:30;;;;;;;8.50;5.20;;;;;;;-141.84;69.41;20078.06;5091610;28;20210;-57
2023/06/02 01:19:00;;;;;;;11.03;4.67;;;;;;;-141.84;68.17;20110.56;5091285;28;20261;-58
2023/06/02 01:21:37;;;;;;;10.10;4.80;;;;;;;-141.84;68.42;20090.25;5091263;28;20180;-56
2023/06/02 01:24:07;;;;;;;8.60;4.53;;;;;;;-141.84;68.60;20080.09;5091509;28;20233;-55
2023/06/02 01:26:36;;;;;;;8.73;4.33;;;;;;;-141.84;68.54;20112.59;5071406;28;20682;-57
2023/06/02 01:29:04;;;;;;;9.73;4.10;;;;;;;-141.84;68.17;20100.41;5071125;28;20201;-57
2023/06/02 01:31:39;;;;;;;6.27;4.27;;;;;;;-141.84;68.54;20122.78;5070772;28;20700;-56
2023/06/02 01:34:15;;;;;;;8.03;4.27;;;;;;;-141.84;66.98;20143.09;5090110;28;20227;-57
2023/06/02 01:36:46;;;;;;;6.73;4.07;;;;;;;-141.84;67.21;20118.69;5091268;28;20184;-58
2023/06/02 01:39:17;;;;;;;7.37;4.27;;;;;;;-141.84;67.10;20132.94;5090737;28;20234;-58
2023/06/02 01:41:48;;;;;;;11.13;4.70;;;;;;;-141.84;67.15;20157.31;5071624;28;20224;-59
2023/06/02 01:44:17;;;;;;;7.50;4.30;;;;;;;-141.84;67.65;20112.59;5091138;28;20208;-58
2023/06/02 01:46:46;;;;;;;9.57;4.87;;;;;;;-141.84;67.50;20114.63;5090921;28;20196;-56
2023/06/02 01:49:15;;;;;;;8.60;4.63;;;;;;;-141.84;67.39;20094.31;5082962;28;20251;-57
2023/06/02 01:51:44;;;;;;;8.00;4.70;;;;;;;-141.84;67.46;20090.25;5070643;28;20259;-57
2023/06/02 01:54:13;;;;;;;8.83;4.70;;;;;;;-141.84;67.13;20096.34;5070434;28;20628;-58
2023/06/02 01:56:43;;;;;;;8.57;4.37;;;;;;;-141.84;66.84;20106.50;5070870;28;20232;-58
2023/06/02 01:59:11;;;;;;;8.20;4.80;;;;;;;-141.84;66.52;20118.69;5070960;28;20266;-56
2023/06/02 02:01:42;;;;;;;7.33;4.40;;;;;;;-141.84;66.77;20128.88;5070835;28;20196;-56
2023/06/02 02:04:10;;;;;;;9.63;4.60;;;;;;;-141.84;67.75;20102.44;5090925;28;20563;-59
2023/06/02 02:06:39;;;;;;;6.83;4.27;;;;;;;-141.84;67.69;20100.41;5084608;28;20227;-55
2023/06/02 02:09:08;;;;;;;9.87;4.53;;;11.30;99.90;;;-141.84;67.41;20094.31;5071159;28;20201;-57
2023/06/02 02:11:36;;;;;;;9.73;4.57;;;11.30;99.90;;;-141.84;67.24;20134.97;5077268;28;20279;-56
2023/06/02 02:14:05;;;;;;;7.13;4.33;;;11.20;99.90;;;-141.84;67.19;20112.59;5090732;28;20200;-56
2023/06/02 02:16:34;;;;;;;9.27;4.40;;;11.20;99.90;;;-141.84;67.33;20110.56;5090593;28;20242;-57
2023/06/02 02:19:02;;;;;;;8.80;4.60;;;11.30;99.90;;;-141.84;67.80;20092.28;5090647;28;20691;-58
2023/06/02 02:21:30;;;;;;;10.67;4.53;;;11.20;99.90;;;-141.84;67.61;20086.19;5090824;28;20295;-57
2023/06/02 02:23:59;;;;;;;6.57;4.40;;;11.10;99.90;;;-141.84;67.42;20122.78;5075721;28;20208;-57
2023/06/02 02:26:28;;;;;;;7.43;4.33;;;;;;;-141.84;67.41;20080.09;5070506;28;20193;-56
2023/06/02 02:28:57;;;;;;;12.53;4.17;;;;;;;-141.84;67.26;20080.09;5070017;28;20294;-57
2023/06/02 02:31:30;;;;;;;6.93;4.07;;;;;;;-141.84;67.97;20108.53;5059667;28;20224;-56
2023/06/02 02:34:00;;;;;;;10.13;4.57;;;;;;;-141.84;68.15;20118.69;5049788;28;20740;-59
2023/06/02 02:36:51;;;;;;;8.83;4.00;;;;;;;-141.84;66.94;20100.41;5050590;28;20277;-58
2023/06/02 02:39:20;;;;;;;12.40;4.83;;;11.10;99.90;;;-141.84;67.28;20084.16;5050481;28;20232;-58
2023/06/02 02:41:48;;;;;;;9.97;4.00;;;11.10;99.90;;;-141.84;67.00;20098.38;5069812;28;20228;-57
2023/06/02 02:44:16;;;;;;;8.60;4.47;;;11.10;99.90;;;-141.84;67.52;20071.97;5090506;28;20203;-58
2023/06/02 02:46:46;;;;;;;6.40;4.07;;;11.20;99.90;;;-141.84;67.37;20080.09;5074784;28;20651;-57
2023/06/02 02:49:14;;;;;;;8.53;4.00;;;11.10;99.90;;;-141.84;66.75;20108.53;5074107;28;20238;-55
2023/06/02 02:51:42;;;;;;;8.57;4.30;;;11.00;99.90;;;-141.84;66.79;20096.34;5073993;28;20205;-55
2023/06/02 02:54:10;;;;;;;8.90;4.60;;;11.00;99.90;;;-141.84;66.61;20074.00;5073793;28;20227;-59
2023/06/02 02:56:40;;;;;;;8.70;4.67;;;11.00;99.90;;;-141.84;66.74;20098.38;5074158;28;20295;-58
2023/06/02 02:59:08;;;;;;;8.27;4.40;;;11.10;99.90;;;-141.84;66.14;20096.34;5073646;28;20201;-58
2023/06/02 03:01:36;;;;;;;11.30;4.10;;;11.00;99.90;;;-141.84;66.42;20047.56;5073659;28;20240;-58
2023/06/02 03:04:07;;;;;;;11.70;4.37;;;11.00;99.90;;;-141.84;65.79;20098.38;5073842;28;20208;-56
2023/06/02 03:06:40;;;;;;;6.43;3.63;;;;;;;-141.84;66.47;20100.41;5073674;28;20250;-57
2023/06/02 03:09:10;;;;;;;9.23;3.97;;;;;;;-141.84;66.00;20053.66;5073662;28;20228;-56
2023/06/02 03:11:39;;;;;;;8.70;3.70;;;;;;;-141.84;65.25;20080.09;5080274;28;20192;-57
2023/06/02 03:14:08;;;;;;;8.57;3.93;;;;;;;-141.84;64.60;20112.59;5093716;28;20219;-56
2023/06/02 03:16:41;;;;;;;11.70;4.33;;;;;;;-141.84;64.96;20057.72;5093681;28;20202;-58
2023/06/02 03:19:12;;;;;;;13.37;4.37;;;;;;;-141.84;65.23;20069.94;5087801;28;20205;-55
2023/06/02 03:21:43;;;;;;;9.83;4.20;;;;;;;-141.84;64.13;20096.34;5073663;28;20224;-57
2023/06/02 03:24:12;;;;;;;7.83;3.90;;;;;;;-141.84;63.75;20080.09;5073225;28;20241;-56
2023/06/02 03:26:45;;;;;;;10.10;3.80;;;;;;;-141.84;64.73;20063.81;5053591;28;20206;-57
2023/06/02 03:29:14;;;;;;;9.23;3.77;;;;;;;-141.84;63.77;20128.88;5053220;28;20194;-58
2023/06/02 03:31:42;;;;;;;10.83;3.97;;;;;;;-141.84;63.98;20080.09;5053220;28;20205;-58
2023/06/02 03:34:12;;;;;;;11.20;3.90;;;;;;;-141.84;63.23;20143.09;5052949;28;20276;-57
2023/06/02 03:36:41;;;;;;;6.97;3.53;;;;;;;-141.84;63.84;20120.75;5053213;28;20209;-57
2023/06/02 03:39:10;;;;;;;9.07;3.60;;;;;;;-141.84;64.19;20100.41;5052945;28;20705;-57
2023/06/02 03:41:39;;;;;;;12.57;3.97;;;;;;;-141.84;63.50;20061.78;5071185;28;20208;-57
2023/06/02 03:44:07;;;;;;;13.77;3.93;;;;;;;-141.84;63.20;20118.69;5073017;28;20197;-54
2023/06/02 03:46:36;;;;;;;11.40;3.67;;;;;;;-141.84;62.77;20108.53;5072522;28;20694;-58
2023/06/02 03:49:05;;;;;;;7.60;3.47;;;;;;;-141.84;62.74;20116.66;5072793;28;20207;-56
2023/06/02 03:51:35;;;;;;;9.30;3.10;;;;;;;-141.84;62.60;20114.63;5072655;28;20676;-56
2023/06/02 03:54:04;;;;;;;11.90;3.23;;;;;;;-141.84;62.60;20071.97;5072915;28;20267;-58
2023/06/02 03:56:33;;;;;;;7.87;3.30;;;;;;;-141.84;63.33;20088.22;5072180;28;20287;-56
2023/06/02 03:59:02;;;;;;;15.00;4.17;;;;;;;-141.84;61.80;20143.09;5072534;28;20201;-58
2023/06/02 04:01:31;;;;;;;9.53;3.40;;;;;;;-141.84;62.44;20112.59;5072133;28;20208;-57
2023/06/02 04:03:59;;;;;;;9.27;3.30;;;;;;;-141.84;62.52;20118.69;5093087;28;20223;-56
2023/06/02 04:06:30;;;;;;;6.43;3.00;;;;;;;-141.84;62.78;20118.69;5086052;28;20686;-58
2023/06/02 04:09:00;;;;;;;13.13;4.10;;;;;;;-141.84;61.49;20155.28;5074745;28;20280;-55
2023/06/02 04:11:28;;;;;;;8.50;3.37;;;;;;;-141.84;61.02;20185.78;5077963;28;20279;-57
2023/06/02 04:13:57;;;;;;;10.67;3.50;;;;;;;-141.84;60.44;20175.63;5092113;28;20311;-57
2023/06/02 04:16:26;;;;;;;11.07;3.67;;;;;;;-141.84;60.36;20165.44;5077661;28;20296;-56
2023/06/02 04:18:54;;;;;;;9.03;3.47;;;;;;;-141.84;60.84;20187.81;5072399;28;20201;-57
2023/06/02 04:21:23;;;;;;;10.07;3.57;;;;;;;-141.84;60.09;20185.78;5072292;28;20239;-56
2023/06/02 04:23:51;;;;;;;8.83;3.00;;;;;;;-141.84;60.42;20191.88;5072234;28;20200;-55
2023/06/02 04:26:21;;;;;;;10.73;3.53;;;;;;;-141.84;60.54;20155.28;5072410;28;20203;-57
2023/06/02 04:28:50;;;;;;;12.57;4.10;;;;;;;-141.84;59.97;20159.34;5072020;28;20748;-56
2023/06/02 04:31:26;;;;;;;7.03;3.13;;;;;;;-141.84;60.17;20159.34;5062616;28;20206;-58
2023/06/02 04:33:56;;;;;;;9.80;3.77;;;;;;;-141.84;60.42;20175.63;5051941;28;20237;-57
2023/06/02 04:36:25;;;;;;;11.67;3.40;;;;;;;-141.84;60.07;20195.94;5052126;28;20229;-55
2023/06/02 04:38:54;;;;;;;11.87;3.37;;;;;;;-141.84;59.18;20244.72;5066985;28;20240;-58
2023/06/02 04:41:24;;;;;;;7.90;3.90;;;;;;;-141.84;59.05;20224.41;5065465;28;20245;-58
2023/06/02 04:43:53;;;;;;;13.03;3.60;;;;;;;-141.84;59.27;20222.38;5071842;28;20208;-59
2023/06/02 04:46:22;;;;;;;14.03;3.37;;;;;;;-141.84;59.05;20222.38;5071467;28;20279;-57
2023/06/02 04:48:51;;;;;;;10.50;3.70;;;;;;;-141.84;58.77;20242.69;5071464;28;20196;-57
2023/06/02 04:51:20;;;;;;;10.57;3.50;;;;;;;-141.84;58.69;20265.03;5071655;28;20204;-56
2023/06/02 04:53:48;;;;;;;10.20;3.90;;;;;;;-141.84;58.56;20258.94;5071500;28;20220;-55
2023/06/02 04:56:17;;;;;;;9.17;3.73;;;;;;;-141.84;57.96;20256.91;5071301;28;20232;-57
2023/06/02 04:58:47;;;;;;;9.90;3.60;;;;;;;-141.84;58.07;20287.41;5071555;28;20291;-57
2023/06/02 05:01:15;;;;;;;8.87;3.73;;;;;;;-141.84;57.66;20295.53;5070902;28;20291;-58
2023/06/02 05:03:47;;;;;;;10.93;3.63;;;;;;;-141.84;57.74;20297.56;5091395;28;20313;-57
2023/06/02 05:06:16;;;;;;;9.60;3.60;;;;;;;-141.84;57.14;20291.47;5084644;28;20683;-57
2023/06/02 05:08:44;;;;;;;7.47;3.40;;;;;;;-141.84;57.74;20269.13;5075248;28;20205;-59
2023/06/02 05:11:13;;;;;;;12.43;3.80;;;;;;;-141.84;57.23;20287.41;5072031;28;20200;-56
2023/06/02 05:13:41;;;;;;;7.63;3.30;;;;;;;-141.84;56.74;20328.06;5071111;28;20239;-55
2023/06/02 05:16:12;;;;;;;7.80;3.03;;;;;;;-141.84;57.06;20258.94;5070764;28;20204;-56
2023/06/02 05:18:41;;;;;;;11.17;3.50;;;;;;;-141.84;57.13;20279.28;5070926;28;20185;-59
2023/06/02 05:21:09;;;;;;;10.07;3.27;;;;;;;-141.84;57.15;20279.28;5070875;28;20215;-55
2023/06/02 05:23:39;;;;;;;9.40;4.20;;;;;;;-141.84;57.46;20289.44;5070739;28;20204;-59
2023/06/02 05:26:08;;;;;;;8.53;3.20;;;;;;;-141.84;57.85;20265.03;5070250;28;20205;-57
2023/06/02 05:28:36;;;;;;;10.43;4.00;;;;;;;-141.84;57.40;20285.38;5070992;28;20236;-56
2023/06/02 05:31:05;;;;;;;8.47;3.40;;;;;;;-141.84;57.10;20281.31;5063143;28;20256;-59
2023/06/02 05:33:35;;;;;;;7.77;3.53;;;;;;;-141.84;57.21;20326.03;5052744;28;20229;-57
2023/06/02 05:36:04;;;;;;;10.47;3.40;;;;;;;-141.84;57.00;20340.25;5070815;28;20259;-57
2023/06/02 05:38:33;;;;;;;10.00;3.57;;;;;;;-141.84;56.65;20374.81;5036242;28;20246;-57
2023/06/02 05:41:01;;;;;;;12.47;3.80;;;;;;;-141.84;56.52;20354.47;5064535;28;20192;-57
2023/06/02 05:43:29;;;;;;;11.40;3.60;;;;;;;-141.84;56.58;20374.81;5070392;28;20668;-57
2023/06/02 05:45:58;;;;;;;12.80;3.77;;;;;;;-141.84;55.65;20370.75;5070786;28;20283;-59
2023/06/02 05:48:26;;;;;;;10.63;3.97;;;;;;;-141.84;56.10;20376.84;5070152;28;20288;-59
2023/06/02 05:50:56;;;;;;;12.87;3.40;;;;;;;-141.84;56.57;20354.47;5070092;28;20429;-56
2023/06/02 05:53:25;;;;;;;12.90;3.33;;;;;;;-141.84;56.13;20409.38;5070301;28;20615;-57
2023/06/02 05:55:53;;;;;;;11.83;3.23;;;;;;;-141.84;55.53;20456.13;5070133;28;20316;-57
2023/06/02 05:58:22;;;;;;;12.37;3.50;;;;;;;-141.84;55.03;20443.91;5070213;28;20328;-58
2023/06/02 06:00:52;;;;;;;11.93;3.47;;;;;;;-141.84;54.88;20500.84;5064861;28;20205;-57
2023/06/02 06:03:21;;;;;;;9.80;3.47;;;;;;;-141.84;54.28;20476.44;5050352;28;20645;-57
2023/06/02 06:05:50;;;;;;;14.57;3.43;;;;;;;-141.84;53.78;20513.03;5062170;28;20652;-59
2023/06/02 06:08:20;;;;;;;12.23;3.57;;;;;;;-141.84;53.34;20549.63;5069862;28;20694;-58
2023/06/02 06:10:48;;;;;;;10.97;3.63;;;;;;;-141.84;53.40;20541.50;5070326;28;20218;-57
2023/06/02 06:13:17;;;;;;;13.70;3.50;;;;;;;-141.84;53.66;20551.66;5050416;28;20205;-58
2023/06/02 06:15:47;;;;;;;12.67;3.40;;;;;;;-141.84;53.15;20565.88;5049771;28;20250;-57
2023/06/02 06:18:16;;;;;;;12.50;3.03;;;;;;;-141.84;52.96;20594.34;5049861;28;20192;-58
2023/06/02 06:20:45;;;;;;;11.40;3.72;;;;;;;-141.84;52.27;20614.66;5053416;28;20233;-56
2023/06/02 06:23:14;;;;;;;10.52;4.00;;;;;;;-141.84;52.71;20606.53;5056748;28;20209;-57
2023/06/02 06:25:44;;;;;;;10.98;3.63;;;;;;;-141.84;52.22;20622.81;5068921;28;20220;-58
2023/06/02 06:28:13;;;;;;;10.40;3.40;;;;;;;-141.84;52.27;20645.16;5076486;28;20630;-57
2023/06/02 06:30:41;;;;;;;11.52;3.15;;;;;;;-141.84;52.19;20663.47;5076586;28;20287;-58
2023/06/02 06:33:10;;;;;;;12.90;3.72;;;;;;;-141.84;51.44;20718.34;5068623;28;20335;-58
2023/06/02 06:35:38;;;;;;;11.38;3.42;;;;;;;-141.84;51.57;20708.19;5076641;28;20259;-56
2023/06/02 06:38:07;;;;;;;9.98;3.30;;;;;;;-141.84;51.37;20730.53;5076665;28;20228;-56
2023/06/02 06:40:35;;;;;;;10.98;3.50;;;;;;;-141.84;50.72;20779.31;5070326;28;20197;-58
2023/06/02 06:43:05;;;;;;;8.02;3.33;;;;;;;-141.84;50.52;20752.91;5076325;28;20496;-57
2023/06/02 06:45:51;;;;;;;10.07;3.22;;;;;;;-141.84;51.39;20710.22;5076323;28;20189;-55
2023/06/02 06:48:19;;;;;;;12.75;3.72;;;;;;;-141.84;51.12;20726.47;5076436;28;20232;-59
2023/06/02 06:50:49;;;;;;;12.75;3.55;;;;;;;-141.84;51.17;20787.47;5076577;28;20611;-57
2023/06/02 06:53:19;;;;;;;11.13;3.40;;;;;;;-141.84;50.90;20771.19;5076251;28;20253;-58
2023/06/02 06:55:48;;;;;;;11.73;3.72;;;;;;;-141.84;51.20;20754.94;5057183;28;20223;-60
2023/06/02 06:58:18;;;;;;;13.18;3.60;;;;;;;-141.84;51.19;20777.28;5076039;28;20723;-59
2023/06/02 07:00:46;;;;;;;10.40;3.10;;;;;;;-141.84;50.40;20836.25;5076304;28;20204;-58
2023/06/02 07:03:15;;;;;;;13.15;4.05;;;;;;;-141.84;50.26;20817.94;5096536;28;20278;-58
2023/06/02 07:05:44;;;;;;;11.95;3.65;;;;;;;-141.84;50.74;20807.78;5077330;28;20196;-56
2023/06/02 07:08:13;;;;;;;8.90;3.63;;;;;;;-141.84;51.03;20785.44;5075528;28;20232;-57
2023/06/02 07:10:41;;;;;;;9.32;3.20;;;;;;;-141.84;51.47;20797.63;5078026;28;20243;-70
2023/06/02 07:13:10;;;;;;;9.10;3.60;;;;;;;-141.84;50.91;20817.94;5081399;28;20204;-69
2023/06/02 07:15:39;;;;;;;10.85;3.63;;;;;;;-141.84;50.14;20842.34;5080111;28;20316;-69
2023/06/02 07:18:08;;;;;;;12.40;4.18;;;;;;;-141.84;50.41;20795.59;5078795;28;20205;-70
2023/06/02 07:20:36;;;;;;;13.90;3.95;;;;;;;-141.84;51.01;20787.47;5078515;28;20620;-69
2023/06/02 07:23:05;;;;;;;13.18;4.00;;;;;;;-141.84;50.96;20791.53;5072969;28;20803;-68
2023/06/02 07:25:34;;;;;;;12.30;4.00;;;;;;;-141.84;51.23;20769.16;5070307;28;20197;-67
2023/06/02 07:28:03;;;;;;;11.40;3.83;;;;;;;-141.84;51.33;20805.75;5071954;28;20228;-67
2023/06/02 07:30:32;;;;;;;11.65;4.10;;;;;;;-141.84;51.49;20809.81;5073044;28;20209;-58
2023/06/02 07:33:02;;;;;;;9.02;3.42;;;;;;;-141.84;50.83;20840.31;5069756;28;20264;-59
2023/06/02 07:35:31;;;;;;;8.00;3.83;;;;;;;-141.84;50.49;20866.75;5072427;28;20239;-55
2023/06/02 07:38:00;;;;;;;16.77;4.05;;;;;;;-141.84;50.59;20858.59;5073035;28;20197;-57
2023/06/02 07:40:29;;;;;;;11.70;4.00;;;;;;;-141.84;51.33;20811.84;5072332;28;20242;-58
2023/06/02 07:42:57;;;;;;;12.80;4.22;;;;;;;-141.84;51.14;20820.00;5072512;28;20244;-55
2023/06/02 07:45:26;;;;;;;11.48;3.83;;;;;;;-141.84;51.64;20809.81;5071841;28;20288;-57
2023/06/02 07:47:55;;;;;;;15.50;5.47;;;;;;;-141.84;51.19;20864.72;5072634;28;20246;-60
2023/06/02 07:50:25;;;;;;;11.50;3.53;;;;;;;-141.84;50.16;20923.66;5072475;28;20303;-57
2023/06/02 07:52:54;;;;;;;15.50;4.05;;;;;;;-141.84;50.02;20883.00;5072299;28;20228;-59
2023/06/02 07:55:24;;;;;;;11.95;4.50;;;;;;;-141.84;50.07;20883.00;5071946;28;20350;-59
2023/06/02 07:57:53;;;;;;;10.48;4.05;;;;;;;-141.84;50.22;20887.06;5071972;28;20692;-60
2023/06/02 08:00:22;;;;;;;12.30;3.40;;;;;;;-141.84;50.20;20956.19;5071659;28;20291;-60
2023/06/02 08:02:51;;;;;;;15.38;3.42;;;;;;;-141.84;49.13;20956.19;5075070;28;20247;-59
2023/06/02 08:05:20;;;;;;;10.65;3.53;;;;;;;-141.84;49.57;20960.25;5071614;28;20226;-59
2023/06/02 08:07:50;;;;;;;10.50;3.95;;;;;;;-141.84;49.71;20992.78;5071822;28;20255;-59
2023/06/02 08:10:19;;;;;;;12.75;4.60;;;;;;;-141.84;49.30;20978.56;5072564;28;20209;-57
2023/06/02 08:12:48;;;;;;;11.30;3.92;;;;;;;-141.84;49.39;21004.97;5071878;28;20677;-59
2023/06/02 08:15:16;;;;;;;11.27;4.22;;;;;;;-141.84;48.81;21070.03;5071803;28;20642;-59
2023/06/02 08:17:45;;;;;;;14.88;3.90;;;;;;;-141.84;48.73;21072.06;5072062;28;20200;-60
2023/06/02 08:20:16;;;;;;;11.65;4.90;;;;;;;-141.84;48.37;21092.41;5071956;28;20196;-59
2023/06/02 08:22:46;;;;;;;11.38;4.38;;;;;;;-141.84;48.81;21065.97;5071542;28;20283;-60
2023/06/02 08:25:16;;;;;;;12.98;4.63;;;;;;;-141.84;49.28;21063.94;5071755;28;20220;-59
2023/06/02 08:27:45;;;;;;;11.27;3.90;;;;;;;-141.84;49.07;21049.72;5071855;28;20243;-60
2023/06/02 08:30:14;;;;;;;12.88;4.47;;;;;;;-141.84;49.34;21037.50;5071883;28;20247;-58
2023/06/02 08:32:43;;;;;;;11.93;4.32;;;;;;;-141.84;49.48;21000.91;5091398;28;20243;-59
2023/06/02 08:35:15;;;;;;;15.00;4.18;;;;;;;-141.84;49.87;20976.53;5089072;28;20189;-74
2023/06/02 08:37:43;;;;;;;9.55;3.83;;;;;;;-141.84;50.19;20976.53;5071859;28;20587;-73
2023/06/02 08:40:12;;;;;;;12.30;4.45;;;;;;;-141.84;50.52;20964.31;5071103;28;20641;-74
2023/06/02 08:42:42;;;;;;;14.60;4.55;;;;;;;-141.84;50.83;20927.72;5072003;28;20204;-58
2023/06/02 08:45:11;;;;;;;12.43;4.32;;;;;;;-141.84;51.28;20913.50;5071049;28;20287;-59
2023/06/02 08:47:44;;;;;;;15.95;4.30;;;;;;;-141.84;51.09;20962.28;5091170;28;20235;-61
2023/06/02 08:50:13;;;;;;;11.80;4.30;;;;;;;-141.84;51.65;20905.38;5092364;28;20191;-72
2023/06/02 08:52:47;;;;;;;10.23;4.20;;;;;;;-141.84;51.43;20931.78;5091376;28;20576;-72
2023/06/02 08:55:16;;;;;;;11.07;3.90;;;;;;;-141.84;51.83;20899.28;5091452;28;20190;-70
2023/06/02 08:57:47;;;;;;;9.02;3.88;;;;;;;-141.84;51.73;20927.72;5075912;28;20220;-69
2023/06/02 09:00:17;;;;;;;10.45;3.90;;;;;;;-141.84;51.03;20976.53;5071350;28;20220;-75
2023/06/02 09:02:47;;;;;;;8.98;4.25;;;;;;;-141.84;50.52;21027.34;5091641;28;20207;-67
2023/06/02 09:05:16;;;;;;;10.10;4.03;;;;;;;-141.84;50.46;21068.00;5074634;28;20771;-69
2023/06/02 09:07:45;;;;;;;16.65;4.75;;;;;;;-141.84;50.05;21124.94;5070813;28;20267;-68
2023/06/02 09:10:30;;;;;;;11.00;4.40;;;;;;;-141.84;50.19;21086.31;5070753;28;20204;-67
2023/06/02 09:13:00;;;;;;;12.30;4.30;;;;;;;-141.84;50.06;21084.28;5071370;28;20224;-68
2023/06/02 09:15:28;;;;;;;10.57;4.38;;;;;;;-141.84;49.77;21094.44;5070212;28;20655;-69
2023/06/02 09:18:11;;;;;;;13.05;4.50;;;;;;;-141.84;49.55;21122.91;5070323;28;20771;-68
2023/06/02 09:20:41;;;;;;;11.35;4.30;;;;;;;-141.84;50.17;21094.44;5070308;28;20224;-66
2023/06/02 09:23:09;;;;;;;11.57;4.10;;;;;;;-141.84;50.31;21096.47;5070712;28;20232;-67
2023/06/02 09:25:40;;;;;;;15.43;4.32;;;;;;;-141.84;50.87;21061.91;5070567;28;20299;-67
2023/06/02 09:28:10;;;;;;;14.30;4.75;;;;;;;-141.84;50.92;21027.34;5070456;28;20212;-69
2023/06/02 09:30:39;;;;;;;16.52;4.32;;;;;;;-141.84;50.47;21110.69;5070301;28;20247;-70
2023/06/02 09:33:11;;;;;;;11.68;4.55;;;;;;;-141.84;50.33;21084.28;5090052;28;20235;-68
2023/06/02 09:35:41;;;;;;;14.85;4.88;;;;;;;-141.84;50.69;21061.91;5084290;28;20189;-70
2023/06/02 09:38:11;;;;;;;12.90;4.32;;;;;;;-141.84;50.87;21023.28;5070000;28;20262;-65
2023/06/02 09:40:40;;;;;;;13.35;4.45;;;;;;;-141.84;50.64;21059.88;5069826;28;20744;-65
2023/06/02 09:43:12;;;;;;;15.38;4.60;;;;;;;-141.84;50.54;21094.44;5070476;28;20291;-65
2023/06/02 09:46:00;;;;;;;10.60;4.55;;;;;;;-141.84;49.57;21165.59;5070184;28;20272;-66
2023/06/02 09:48:29;;;;;;;10.15;4.10;;;;;;;-141.84;49.18;21244.88;5090494;28;20204;-73
2023/06/02 09:50:58;;;;;;;9.95;4.53;;;;;;;-141.84;49.30;21204.22;5090131;28;20758;-75
2023/06/02 09:53:27;;;;;;;12.05;4.93;;;;;;;-141.84;49.80;21139.16;5079921;28;20661;-74
2023/06/02 09:55:56;;;;;;;11.45;4.55;;;;;;;-141.84;49.99;21155.44;5069854;28;20207;-71
2023/06/02 09:58:26;;;;;;;12.98;4.10;;;;;;;-141.84;49.75;21236.75;5070168;28;20227;-71
2023/06/02 10:00:55;;;;;;;12.88;4.85;;;;;;;-141.84;49.03;21244.88;5069451;28;20192;-68
2023/06/02 10:03:24;;;;;;;12.63;4.90;;;;;;;-141.84;49.12;21183.88;5090097;28;20206;-69
2023/06/02 10:06:07;;;;;;;11.30;4.75;;;;;;;-141.84;48.88;21200.16;5083934;28;20195;-68
2023/06/02 10:08:48;;;;;;;10.07;4.78;;;;;;;-141.84;49.03;21224.56;5075332;28;20193;-70
2023/06/02 10:11:22;;;;;;;12.38;4.68;;;;;;;-141.84;48.51;21228.63;5069796;28;20200;-68
2023/06/02 10:14:10;;;;;;;10.52;4.53;;;;;;;-141.84;47.75;21287.56;5069313;28;20679;-69
2023/06/02 10:17:03;;;;;;;9.98;3.83;;;;;;;-141.84;47.20;21330.28;5069514;28;20291;-69
2023/06/02 10:20:05;;;;;;;12.65;4.38;;;;;;;-141.84;46.47;21350.59;5069977;28;20196;-68
2023/06/02 10:23:00;;;;;;;11.27;4.10;;;;;;;-141.84;47.66;21240.81;5069810;28;20593;-68
2023/06/02 10:25:35;;;;;;;14.20;4.63;;;;;;;-141.84;47.10;21397.38;5062020;28;20209;-69
2023/06/02 10:28:08;;;;;;;8.50;3.88;;;;;;;-141.84;45.82;21513.25;5068969;28;20201;-70
2023/06/02 10:30:38;;;;;;;11.27;4.78;;;;;;;-141.84;45.64;21501.06;5067490;28;20251;-69
2023/06/02 10:33:07;;;;;;;8.65;4.13;;;;;;;-141.84;44.47;21576.28;5068845;28;20724;-70
2023/06/02 10:35:58;;;;;;;11.15;3.58;;;;;;;-141.84;43.07;21578.31;5069098;28;20263;-67
2023/06/02 10:38:29;;;;;;;13.40;4.30;;;;;;;-141.84;44.09;21588.50;5068261;28;20221;-70
2023/06/02 10:41:00;;;;;;;10.85;4.00;;;;;;;-141.84;44.57;21560.03;5076500;28;20280;-68
2023/06/02 10:43:29;;;;;;;10.68;4.00;;;;;;;-141.84;43.45;21647.47;5069953;28;20235;-69
2023/06/02 10:46:17;;;;;;;9.55;4.05;;;;;;;-141.84;43.21;21708.47;5069996;28;20228;-68
2023/06/02 10:48:46;;;;;;;11.40;3.58;;;;;;;-141.84;42.04;21749.13;5069882;28;20235;-69
2023/06/02 10:51:16;;;;;;;11.57;3.47;;;;;;;-141.84;42.95;21653.56;5070187;28;20270;-68
2023/06/02 10:54:14;;;;;;;13.48;4.47;;;;;;;-141.84;45.43;21462.44;5069429;28;20633;-69
2023/06/02 10:56:44;;;;;;;9.40;3.72;;;;;;;-141.84;46.60;21350.59;5069539;28;20721;-68
2023/06/02 10:59:32;;;;;;;10.70;4.32;;;;;;;-141.84;47.01;21297.75;5069835;28;20185;-68
2023/06/02 11:02:02;;;;;;;8.55;3.28;;;;;;;-141.84;47.55;21309.94;5055079;28;20237;-69
2023/06/02 11:04:32;;;;;;;9.82;4.25;;;;;;;-141.84;46.86;21307.91;5051307;28;20186;-68
2023/06/02 11:07:22;;;;;;;11.25;4.10;;;;;;;-141.84;46.46;21370.94;5071922;28;20189;-69
2023/06/02 11:09:54;;;;;;;11.45;3.67;;;;;;;-141.84;45.88;21476.66;5051930;28;20545;-65
2023/06/02 11:12:47;;;;;;;9.55;3.40;;;;;;;-141.84;45.59;21578.31;5065539;28;20748;-65
2023/06/02 11:15:21;;;;;;;9.30;3.60;;;;;;;-141.84;43.66;21751.16;5072645;28;20235;-64
2023/06/02 11:17:49;;;;;;;8.15;3.60;;;;;;;-141.84;42.90;21775.56;5072575;28;20205;-64
2023/06/02 11:20:19;;;;;;;7.85;3.58;;;;;;;-141.84;42.07;21822.31;5072631;28;20357;-69
2023/06/02 11:22:48;;;;;;;10.68;3.90;;;;;;;-141.84;42.34;21828.44;5072894;28;20204;-71